createdAt,value
2019-04-07T00:00:16.497Z,7.72
2019-04-07T00:02:46.441Z,8.11
2019-04-07T00:05:14.818Z,7.82
2019-04-07T00:07:42.362Z,8.03
2019-04-07T00:10:09.961Z,7.73
2019-04-07T00:12:37.589Z,7.75
2019-04-07T00:15:05.084Z,8.47
2019-04-07T00:17:32.459Z,8.16
2019-04-07T00:19:59.688Z,7.80
2019-04-07T00:22:26.962Z,7.60
2019-04-07T00:24:54.217Z,8.05
2019-04-07T00:27:21.449Z,7.81
2019-04-07T00:29:48.727Z,7.56
2019-04-07T00:32:15.924Z,8.00
2019-04-07T00:34:43.217Z,8.17
2019-04-07T00:37:10.678Z,7.96
2019-04-07T00:39:37.918Z,7.95
2019-04-07T00:42:05.202Z,7.99
2019-04-07T00:44:32.817Z,7.52
2019-04-07T00:47:00.345Z,7.75
2019-04-07T00:49:28.131Z,7.68
2019-04-07T00:51:57.437Z,7.58
2019-04-07T00:54:25.415Z,7.32
2019-04-07T00:56:53.095Z,7.68
2019-04-07T00:59:20.771Z,7.66
2019-04-07T01:01:48.386Z,7.24
2019-04-07T01:04:15.663Z,7.42
2019-04-07T01:06:42.926Z,7.55
2019-04-07T01:09:10.396Z,8.18
2019-04-07T01:11:37.684Z,8.17
2019-04-07T01:14:05.022Z,7.57
2019-04-07T01:16:32.758Z,7.27
2019-04-07T01:19:00.337Z,7.49
2019-04-07T01:21:28.092Z,7.50
2019-04-07T01:23:55.732Z,6.88
2019-04-07T01:26:22.942Z,7.56
2019-04-07T01:28:50.754Z,7.13
2019-04-07T01:31:18.789Z,6.82
2019-04-07T01:33:46.870Z,7.31
2019-04-07T01:36:14.358Z,7.14
2019-04-07T01:38:42.156Z,7.46
2019-04-07T01:41:20.243Z,6.75
2019-04-07T01:43:56.769Z,6.76
2019-04-07T01:46:47.253Z,6.75
2019-04-07T01:49:27.364Z,6.67
2019-04-07T01:52:10.909Z,6.91
2019-04-07T01:54:44.744Z,6.37
2019-04-07T01:57:41.083Z,6.47
2019-04-07T02:00:18.551Z,7.23
2019-04-07T02:03:07.994Z,6.36
2019-04-07T02:05:59.825Z,6.64
2019-04-07T02:08:42.868Z,7.12
2019-04-07T02:11:28.787Z,6.97
2019-04-07T02:14:15.875Z,6.48
2019-04-07T02:16:49.003Z,6.76
2019-04-07T02:19:38.489Z,7.30
2019-04-07T02:22:24.016Z,6.96
2019-04-07T02:24:57.617Z,6.69
2019-04-07T02:27:38.638Z,7.32
2019-04-07T02:30:31.708Z,7.02
2019-04-07T02:33:08.447Z,6.21
2019-04-07T02:35:45.023Z,6.91
2019-04-07T02:38:21.487Z,6.70
2019-04-07T02:41:17.828Z,6.38
2019-04-07T02:44:10.836Z,6.45
2019-04-07T02:47:06.859Z,6.84
2019-04-07T02:49:50.083Z,6.45
2019-04-07T02:52:45.727Z,7.11
2019-04-07T02:55:35.596Z,6.66
2019-04-07T02:58:22.854Z,6.56
2019-04-07T03:01:13.626Z,6.65
2019-04-07T03:04:01.816Z,6.51
2019-04-07T03:06:52.870Z,6.89
2019-04-07T03:09:35.003Z,6.67
2019-04-07T03:12:34.187Z,6.36
2019-04-07T03:15:22.781Z,6.36
2019-04-07T03:18:16.328Z,5.78
2019-04-07T03:20:50.366Z,6.25
2019-04-07T03:23:36.491Z,5.87
2019-04-07T03:26:18.352Z,5.94
2019-04-07T03:29:03.758Z,6.03
2019-04-07T03:31:51.507Z,5.62
2019-04-07T03:34:38.720Z,5.55
2019-04-07T03:37:37.101Z,5.78
2019-04-07T03:40:22.287Z,5.63
2019-04-07T03:43:09.423Z,5.57
2019-04-07T03:45:57.223Z,5.60
2019-04-07T03:48:35.420Z,5.87
2019-04-07T03:51:13.858Z,6.26
2019-04-07T03:54:07.212Z,6.05
2019-04-07T03:57:00.454Z,6.09
2019-04-07T03:59:47.398Z,5.46
2019-04-07T04:02:33.310Z,5.90
2019-04-07T04:05:20.719Z,5.86
2019-04-07T04:07:56.775Z,5.86
2019-04-07T04:10:50.135Z,5.98
2019-04-07T04:13:27.362Z,5.94
2019-04-07T04:16:03.218Z,5.82
2019-04-07T04:18:30.944Z,5.95
2019-04-07T04:20:59.464Z,5.74
2019-04-07T04:23:27.142Z,5.83
2019-04-07T04:25:54.425Z,5.57
2019-04-07T04:28:21.900Z,5.75
2019-04-07T04:30:49.319Z,5.93
2019-04-07T04:33:16.587Z,6.41
2019-04-07T04:35:44.169Z,5.56
2019-04-07T04:38:12.183Z,5.72
2019-04-07T04:40:40.767Z,5.63
2019-04-07T04:43:08.996Z,6.03
2019-04-07T04:45:36.550Z,6.26
2019-04-07T04:48:04.481Z,6.11
2019-04-07T04:50:32.137Z,6.28
2019-04-07T04:52:59.909Z,6.10
2019-04-07T04:55:27.501Z,6.26
2019-04-07T04:57:54.911Z,6.14
2019-04-07T05:00:22.147Z,6.07
2019-04-07T05:02:49.557Z,6.40
2019-04-07T05:05:17.059Z,5.91
2019-04-07T05:07:55.664Z,6.00
2019-04-07T05:10:13.745Z,6.07
2019-04-07T05:12:41.207Z,6.05
2019-04-07T05:15:09.735Z,5.86
2019-04-07T05:17:37.107Z,6.08
2019-04-07T05:20:04.686Z,6.21
2019-04-07T05:22:32.094Z,6.51
2019-04-07T05:24:59.689Z,6.33
2019-04-07T05:27:27.587Z,6.26
2019-04-07T05:29:55.621Z,6.02
2019-04-07T05:32:23.300Z,6.50
2019-04-07T05:34:50.600Z,6.66
2019-04-07T05:37:17.887Z,6.51
2019-04-07T05:39:45.171Z,6.46
2019-04-07T05:42:13.438Z,6.41
2019-04-07T05:44:43.197Z,6.44
2019-04-07T05:47:12.308Z,6.45
2019-04-07T05:49:39.654Z,6.48
2019-04-07T05:52:06.906Z,6.43
2019-04-07T05:54:34.223Z,6.38
2019-04-07T05:57:01.820Z,6.54
2019-04-07T05:59:30.361Z,6.12
2019-04-07T06:02:00.673Z,5.92
2019-04-07T06:04:27.077Z,6.53
2019-04-07T06:06:56.033Z,5.97
2019-04-07T06:09:24.185Z,6.50
2019-04-07T06:11:52.220Z,6.08
2019-04-07T06:14:20.501Z,6.40
2019-04-07T06:16:52.493Z,6.60
2019-04-07T06:19:17.090Z,6.66
2019-04-07T06:21:47.280Z,6.30
2019-04-07T06:24:13.669Z,6.50
2019-04-07T06:26:42.117Z,6.54
2019-04-07T06:29:10.492Z,6.56
2019-04-07T06:31:40.732Z,6.60
2019-04-07T06:34:10.494Z,6.70
2019-04-07T06:36:38.636Z,6.73
2019-04-07T06:39:08.213Z,6.75
2019-04-07T06:41:36.715Z,7.02
2019-04-07T06:44:12.382Z,6.97
2019-04-07T06:47:04.726Z,7.11
2019-04-07T06:49:52.065Z,7.21
2019-04-07T06:52:26.065Z,7.22
2019-04-07T06:55:15.594Z,7.52
2019-04-07T06:57:53.766Z,7.39
2019-04-07T07:00:32.047Z,7.39
2019-04-07T07:03:24.851Z,7.29
2019-04-07T07:06:06.842Z,7.07
2019-04-07T07:08:57.331Z,7.40
2019-04-07T07:11:56.425Z,7.77
2019-04-07T07:14:43.717Z,8.09
2019-04-07T07:17:27.951Z,7.95
2019-04-07T07:20:04.400Z,8.03
2019-04-07T07:22:46.694Z,7.89
2019-04-07T07:25:13.236Z,10.24
2019-04-07T07:27:41.582Z,9.71
2019-04-07T07:30:09.777Z,8.41
2019-04-07T07:32:37.911Z,8.60
2019-04-07T07:35:06.289Z,8.50
2019-04-07T07:37:33.719Z,8.83
2019-04-07T07:40:01.046Z,9.00
2019-04-07T07:42:28.925Z,9.10
2019-04-07T07:44:57.063Z,8.91
2019-04-07T07:47:25.303Z,9.06
2019-04-07T07:49:52.788Z,9.31
2019-04-07T07:52:21.765Z,9.46
2019-04-07T07:54:49.570Z,9.60
2019-04-07T07:57:21.025Z,9.93
2019-04-07T07:59:46.394Z,9.97
2019-04-07T08:02:17.489Z,10.03
2019-04-07T08:04:43.585Z,10.28
2019-04-07T08:07:13.559Z,10.26
2019-04-07T08:09:40.320Z,10.49
2019-04-07T08:12:08.300Z,10.76
2019-04-07T08:14:35.995Z,10.72
2019-04-07T08:17:04.100Z,11.13
2019-04-07T08:19:31.836Z,10.96
2019-04-07T08:21:59.648Z,11.12
2019-04-07T08:24:27.347Z,11.23
2019-04-07T08:26:57.135Z,11.28
2019-04-07T08:29:23.999Z,11.43
2019-04-07T08:31:54.157Z,11.46
2019-04-07T08:34:20.637Z,11.59
2019-04-07T08:36:48.163Z,11.80
2019-04-07T08:39:23.929Z,11.74
2019-04-07T08:41:45.190Z,11.65
2019-04-07T08:44:13.138Z,12.07
2019-04-07T08:46:42.891Z,12.36
2019-04-07T08:49:09.697Z,12.22
2019-04-07T08:51:36.987Z,12.47
2019-04-07T08:54:05.079Z,12.53
2019-04-07T08:56:34.078Z,12.15
2019-04-07T08:59:01.609Z,12.60
2019-04-07T09:01:30.560Z,12.36
2019-04-07T09:03:58.558Z,12.49
2019-04-07T09:06:28.460Z,12.64
2019-04-07T09:08:55.153Z,12.53
2019-04-07T09:11:23.636Z,12.94
2019-04-07T09:13:52.796Z,13.51
2019-04-07T09:16:29.085Z,13.19
2019-04-07T09:19:19.343Z,13.53
2019-04-07T09:22:06.312Z,13.54
2019-04-07T09:24:52.093Z,13.56
2019-04-07T09:27:27.407Z,13.85
2019-04-07T09:30:05.903Z,13.78
2019-04-07T09:33:01.347Z,14.15
2019-04-07T09:35:56.647Z,14.09
2019-04-07T09:38:45.958Z,14.18
2019-04-07T09:41:31.852Z,13.89
2019-04-07T09:44:17.345Z,14.08
2019-04-07T09:47:17.264Z,14.29
2019-04-07T09:50:06.844Z,14.06
2019-04-07T09:52:53.693Z,14.06
2019-04-07T09:55:37.860Z,14.39
2019-04-07T09:58:33.711Z,14.47
2019-04-07T10:01:20.755Z,15.01
2019-04-07T10:03:58.565Z,14.62
2019-04-07T10:06:49.574Z,15.06
2019-04-07T10:09:46.139Z,15.25
2019-04-07T10:12:26.712Z,15.44
2019-04-07T10:15:14.048Z,15.24
2019-04-07T10:17:47.484Z,15.07
2019-04-07T10:20:34.405Z,15.02
2019-04-07T10:23:16.263Z,15.29
2019-04-07T10:26:06.037Z,15.35
2019-04-07T10:28:51.773Z,15.23
2019-04-07T10:31:25.767Z,15.72
2019-04-07T10:33:59.816Z,15.80
2019-04-07T10:36:36.259Z,15.48
2019-04-07T10:39:22.983Z,15.74
2019-04-07T10:42:11.394Z,16.10
2019-04-07T10:45:01.242Z,15.99
2019-04-07T10:47:57.786Z,15.94
2019-04-07T10:50:56.660Z,16.05
2019-04-07T10:53:38.656Z,16.50
2019-04-07T10:56:27.731Z,16.05
2019-04-07T10:59:23.986Z,16.69
2019-04-07T11:02:14.447Z,16.20
2019-04-07T11:04:57.395Z,16.77
2019-04-07T11:07:43.758Z,16.66
2019-04-07T11:10:34.469Z,16.48
2019-04-07T11:13:12.725Z,16.84
2019-04-07T11:16:10.280Z,16.77
2019-04-07T11:18:49.108Z,17.05
2019-04-07T11:21:30.292Z,17.12
2019-04-07T11:24:24.001Z,17.22
2019-04-07T11:27:05.643Z,17.12
2019-04-07T11:29:45.864Z,17.31
2019-04-07T11:32:36.036Z,17.30
2019-04-07T11:35:28.943Z,17.35
2019-04-07T11:38:21.251Z,17.72
2019-04-07T11:41:08.280Z,17.87
2019-04-07T11:43:51.011Z,17.40
2019-04-07T11:46:36.250Z,17.38
2019-04-07T11:49:26.655Z,18.02
2019-04-07T11:52:05.929Z,18.02
2019-04-07T11:54:47.889Z,18.54
2019-04-07T11:57:45.254Z,18.35
2019-04-07T12:00:33.318Z,17.86
2019-04-07T12:03:27.938Z,17.70
2019-04-07T12:06:11.627Z,17.67
2019-04-07T12:09:00.276Z,17.39
2019-04-07T12:11:55.089Z,17.56
2019-04-07T12:14:40.608Z,17.89
2019-04-07T12:17:28.768Z,17.55
2019-04-07T12:20:33.508Z,17.41
2019-04-07T12:23:04.706Z,17.39
2019-04-07T12:25:57.756Z,17.35
2019-04-07T12:28:52.444Z,17.28
2019-04-07T12:31:40.428Z,18.30
2019-04-07T12:34:36.500Z,18.89
2019-04-07T12:37:15.629Z,19.03
2019-04-07T12:40:01.435Z,18.58
2019-04-07T12:42:52.205Z,18.94
2019-04-07T12:45:28.570Z,18.99
2019-04-07T12:48:14.520Z,19.35
2019-04-07T12:50:57.330Z,19.01
2019-04-07T12:53:46.934Z,19.11
2019-04-07T12:56:44.533Z,18.56
2019-04-07T12:59:28.270Z,19.84
2019-04-07T13:02:25.818Z,19.20
2019-04-07T13:05:19.649Z,19.30
2019-04-07T13:08:05.953Z,18.16
2019-04-07T13:10:41.741Z,18.84
2019-04-07T13:13:33.895Z,18.87
2019-04-07T13:16:30.501Z,19.72
2019-04-07T13:19:27.466Z,19.84
2019-04-07T13:22:04.616Z,20.06
2019-04-07T13:24:45.426Z,20.52
2019-04-07T13:27:35.186Z,18.67
2019-04-07T13:30:21.369Z,19.90
2019-04-07T13:33:02.940Z,19.96
2019-04-07T13:35:36.211Z,20.22
2019-04-07T13:38:22.032Z,20.30
2019-04-07T13:41:12.278Z,20.05
2019-04-07T13:44:07.264Z,19.68
2019-04-07T13:46:57.510Z,20.42
2019-04-07T13:49:57.380Z,21.07
2019-04-07T13:52:41.936Z,21.10
2019-04-07T13:55:24.122Z,20.86
2019-04-07T13:58:00.503Z,20.05
2019-04-07T14:01:05.361Z,19.05
2019-04-07T14:03:41.813Z,18.87
2019-04-07T14:06:31.302Z,18.66
2019-04-07T14:09:18.140Z,18.72
2019-04-07T14:12:04.824Z,18.42
2019-04-07T14:14:42.606Z,18.63
2019-04-07T14:17:30.853Z,18.39
2019-04-07T14:20:21.472Z,18.70
2019-04-07T14:22:57.859Z,18.91
2019-04-07T14:25:44.490Z,18.63
2019-04-07T14:28:29.651Z,18.70
2019-04-07T14:31:19.663Z,18.51
2019-04-07T14:33:58.941Z,18.69
2019-04-07T14:36:43.937Z,18.39
2019-04-07T14:39:43.417Z,17.53
2019-04-07T14:42:29.532Z,17.43
2019-04-07T14:45:19.966Z,17.35
2019-04-07T14:48:10.902Z,17.59
2019-04-07T14:50:50.569Z,18.07
2019-04-07T14:53:37.677Z,18.03
2019-04-07T14:56:24.939Z,18.55
2019-04-07T14:59:12.938Z,18.57
2019-04-07T15:01:52.384Z,18.09
2019-04-07T15:04:21.517Z,17.59
2019-04-07T15:06:58.092Z,17.49
2019-04-07T15:09:45.850Z,17.66
2019-04-07T15:12:23.866Z,17.22
2019-04-07T15:14:49.248Z,17.42
2019-04-07T15:17:16.698Z,17.48
2019-04-07T15:19:44.253Z,16.91
2019-04-07T15:22:12.131Z,16.55
2019-04-07T15:24:39.797Z,16.72
2019-04-07T15:27:08.003Z,16.63
2019-04-07T15:29:39.423Z,17.41
2019-04-07T15:32:07.119Z,17.24
2019-04-07T15:34:34.876Z,16.92
2019-04-07T15:37:02.389Z,17.26
2019-04-07T15:39:30.341Z,17.45
2019-04-07T15:41:59.053Z,17.19
2019-04-07T15:44:27.139Z,16.84
2019-04-07T15:46:54.937Z,16.90
2019-04-07T15:49:27.390Z,17.36
2019-04-07T15:51:54.009Z,17.29
2019-04-07T15:54:24.169Z,16.91
2019-04-07T15:56:53.992Z,16.97
2019-04-07T15:59:22.662Z,16.88
2019-04-07T16:01:50.514Z,16.60
2019-04-07T16:04:23.717Z,16.76
2019-04-07T16:06:50.240Z,16.43
2019-04-07T16:09:30.508Z,16.37
2019-04-07T16:11:49.334Z,16.15
2019-04-07T16:14:16.477Z,16.14
2019-04-07T16:16:43.994Z,15.90
2019-04-07T16:19:17.543Z,16.01
2019-04-07T16:21:42.992Z,15.84
2019-04-07T16:24:11.435Z,15.85
2019-04-07T16:26:39.913Z,15.80
2019-04-07T16:29:08.970Z,16.05
2019-04-07T16:31:36.728Z,15.86
2019-04-07T16:34:06.684Z,15.64
2019-04-07T16:36:35.099Z,15.81
2019-04-07T16:39:07.870Z,15.73
2019-04-07T16:41:35.882Z,15.53
2019-04-07T16:44:06.997Z,15.33
2019-04-07T16:46:33.779Z,15.79
2019-04-07T16:49:04.556Z,15.68
2019-04-07T16:51:33.894Z,15.44
2019-04-07T16:54:02.749Z,15.20
2019-04-07T16:56:34.499Z,14.83
2019-04-07T16:59:02.713Z,15.13
2019-04-07T17:01:30.433Z,14.94
2019-04-07T17:03:59.331Z,15.02
2019-04-07T17:06:31.863Z,14.75
2019-04-07T17:08:56.899Z,14.40
2019-04-07T17:11:24.797Z,14.43
2019-04-07T17:13:55.829Z,14.85
2019-04-07T17:16:25.019Z,14.39
2019-04-07T17:18:55.376Z,14.60
2019-04-07T17:21:23.054Z,14.44
2019-04-07T17:23:55.449Z,14.36
2019-04-07T17:26:24.146Z,14.44
2019-04-07T17:28:52.860Z,14.61
2019-04-07T17:31:21.732Z,14.30
2019-04-07T17:33:49.768Z,14.28
2019-04-07T17:36:21.089Z,14.22
2019-04-07T17:39:08.259Z,13.98
2019-04-07T17:41:36.023Z,13.95
2019-04-07T17:44:26.695Z,13.58
2019-04-07T17:47:14.318Z,13.52
2019-04-07T17:50:07.453Z,13.47
2019-04-07T17:52:55.801Z,13.55
2019-04-07T17:55:45.858Z,13.53
2019-04-07T17:58:24.494Z,13.35
2019-04-07T18:01:11.577Z,13.07
2019-04-07T18:03:56.591Z,12.81
2019-04-07T18:06:57.142Z,12.90
2019-04-07T18:09:33.022Z,12.75
2019-04-07T18:12:18.030Z,12.83
2019-04-07T18:15:08.882Z,12.81
2019-04-07T18:17:54.087Z,13.05
2019-04-07T18:20:41.434Z,13.01
2019-04-07T18:23:27.760Z,12.97
2019-04-07T18:26:07.184Z,13.01
2019-04-07T18:28:52.679Z,12.94
2019-04-07T18:31:42.001Z,12.67
2019-04-07T18:34:35.447Z,12.55
2019-04-07T18:37:32.417Z,12.38
2019-04-07T18:40:29.584Z,12.64
2019-04-07T18:43:22.686Z,12.68
2019-04-07T18:46:11.854Z,12.63
2019-04-07T18:49:12.562Z,12.70
2019-04-07T18:52:00.317Z,12.69
2019-04-07T18:54:46.486Z,12.74
2019-04-07T18:57:42.614Z,12.98
2019-04-07T19:00:32.508Z,12.78
2019-04-07T19:03:29.657Z,12.74
2019-04-07T19:06:16.671Z,12.41
2019-04-07T19:09:12.228Z,12.59
2019-04-07T19:12:16.781Z,12.65
2019-04-07T19:15:01.623Z,12.27
2019-04-07T19:17:40.620Z,12.49
2019-04-07T19:20:31.666Z,12.40
2019-04-07T19:23:21.606Z,12.88
2019-04-07T19:25:57.748Z,12.49
2019-04-07T19:28:49.904Z,12.34
2019-04-07T19:31:51.724Z,12.59
2019-04-07T19:34:32.509Z,11.90
2019-04-07T19:37:30.397Z,11.90
2019-04-07T19:40:16.712Z,12.02
2019-04-07T19:42:54.552Z,11.96
2019-04-07T19:45:30.741Z,11.64
2019-04-07T19:48:25.372Z,11.69
2019-04-07T19:51:22.603Z,11.62
2019-04-07T19:54:19.533Z,11.75
2019-04-07T19:57:23.802Z,11.86
2019-04-07T20:00:03.331Z,11.82
2019-04-07T20:03:11.396Z,11.79
2019-04-07T20:05:58.483Z,11.84
2019-04-07T20:08:44.024Z,11.86
2019-04-07T20:11:30.913Z,11.41
2019-04-07T20:14:04.931Z,11.61
2019-04-07T20:16:51.452Z,11.41
2019-04-07T20:19:37.208Z,11.53
2019-04-07T20:22:23.136Z,11.54
2019-04-07T20:25:13.360Z,11.63
2019-04-07T20:27:57.326Z,11.70
2019-04-07T20:30:54.008Z,11.54
2019-04-07T20:33:38.729Z,11.68
2019-04-07T20:36:32.026Z,11.70
2019-04-07T20:39:06.059Z,11.65
2019-04-07T20:42:08.684Z,11.50
2019-04-07T20:45:00.878Z,11.54
2019-04-07T20:47:41.086Z,11.37
2019-04-07T20:50:22.081Z,11.38
2019-04-07T20:53:14.578Z,11.16
2019-04-07T20:56:02.029Z,11.28
2019-04-07T20:58:48.790Z,11.05
2019-04-07T21:01:42.972Z,10.49
2019-04-07T21:04:35.305Z,10.62
2019-04-07T21:07:31.358Z,10.51
2019-04-07T21:10:08.251Z,10.64
2019-04-07T21:12:52.778Z,10.84
2019-04-07T21:15:38.896Z,10.64
2019-04-07T21:18:26.857Z,10.72
2019-04-07T21:21:03.169Z,10.77
2019-04-07T21:23:46.230Z,10.69
2019-04-07T21:26:39.684Z,10.68
2019-04-07T21:29:26.824Z,10.86
2019-04-07T21:32:15.123Z,10.69
2019-04-07T21:35:10.862Z,10.48
2019-04-07T21:38:00.622Z,10.54
2019-04-07T21:40:57.713Z,10.35
2019-04-07T21:43:55.442Z,10.19
2019-04-07T21:46:45.026Z,10.04
2019-04-07T21:49:19.461Z,10.09
2019-04-07T21:51:55.302Z,10.01
2019-04-07T21:54:30.706Z,10.07
2019-04-07T21:57:19.293Z,9.92
2019-04-07T22:00:06.967Z,9.89
2019-04-07T22:02:52.528Z,9.60
2019-04-07T22:05:39.127Z,9.67
2019-04-07T22:08:17.082Z,9.70
2019-04-07T22:10:43.569Z,9.70
2019-04-07T22:13:10.854Z,9.58
2019-04-07T22:15:45.819Z,9.66
2019-04-07T22:18:08.724Z,9.74
2019-04-07T22:20:36.958Z,9.77
2019-04-07T22:23:07.954Z,9.82
2019-04-07T22:25:42.094Z,9.81
2019-04-07T22:28:09.669Z,9.49
2019-04-07T22:30:40.679Z,9.47
2019-04-07T22:33:06.254Z,9.46
2019-04-07T22:35:36.459Z,9.41
2019-04-07T22:38:03.135Z,9.23
2019-04-07T22:40:34.229Z,9.29
2019-04-07T22:42:59.720Z,9.14
2019-04-07T22:45:29.938Z,8.98
2019-04-07T22:47:57.106Z,9.10
2019-04-07T22:50:25.283Z,9.12
2019-04-07T22:52:53.335Z,9.09
2019-04-07T22:55:20.894Z,9.25
2019-04-07T22:57:48.407Z,9.50
2019-04-07T23:00:21.192Z,8.70
2019-04-07T23:02:48.748Z,8.95
2019-04-07T23:05:16.941Z,9.34
2019-04-07T23:07:44.568Z,9.07
2019-04-07T23:10:11.910Z,9.26
2019-04-07T23:12:40.844Z,9.38
2019-04-07T23:15:09.132Z,9.24
2019-04-07T23:17:36.501Z,9.39
2019-04-07T23:20:04.394Z,9.57
2019-04-07T23:22:31.628Z,9.41
2019-04-07T23:24:59.388Z,9.27
2019-04-07T23:27:27.582Z,9.17
2019-04-07T23:29:55.109Z,9.16
2019-04-07T23:32:23.919Z,9.38
2019-04-07T23:34:52.041Z,9.44
2019-04-07T23:37:19.349Z,9.46
2019-04-07T23:39:46.589Z,9.37
2019-04-07T23:42:14.528Z,9.38
2019-04-07T23:44:43.673Z,9.29
2019-04-07T23:47:11.199Z,9.48
2019-04-07T23:49:38.589Z,9.76
2019-04-07T23:52:07.503Z,10.05
2019-04-07T23:54:35.251Z,9.97
2019-04-07T23:57:03.840Z,9.96
2019-04-07T23:59:31.147Z,9.53
